1997 KARLETTE (1997042S13096)


On this page: IBTrACS data - Map and Plots - Positions - Intensities - Original source data

Summary

Start Feb 11
End Feb 26
Basin SI
LMI 65 kt
Sources jtwc_sh
reunion
neumann
In WMO? Yes
Previous storm 1997 GILLIAN (SP)
Previous in basin 1997 JOSIE (SI)
Concurrent storms 1997 HELINDA (SI)
1997 JOSIE (SI)
1997 GILLIAN (SP)
1997 KARLETTE (SI)
1997 HAROLD (SP)
1997 HSK2797 (SI)
1997 ITA (SP)
1997 HSK2997 (SP)
Next in basin 1997 HSK2797 (SI)
Next storm 1997 HAROLD (SP)

top of page IBTrACS Data: File Access

top of page HURSAT Data: File Access

Image of storm

top of page Plots:

Map of storm track will not appear if FTP is down
Time series of cyclone Maximum Sustained Wind will not appear if FTP is down
Time series of cyclone Minimum Central Pressure will not appear if FTP is down

top of page Track Data:Position

jtwc_sh reunion neumann
Date Lat Lon Lat Lon Lat Lon
1997-02-11 00:00:00 -13.2 95.6 -13.2 95.6
1997-02-11 06:00:00 -13.3 94.6 -13.3 94.6
1997-02-11 12:00:00 -13.3 93.7 -13.3 93.7
1997-02-11 18:00:00 -13.3 92.8 -13.3 92.8
1997-02-12 00:00:00 -13.3 91.9 -13.3 91.9
1997-02-12 06:00:00 -13.2 91.1 -13.2 91.1
1997-02-12 12:00:00 -13.1 90.4 -13.1 90.4
1997-02-12 18:00:00 -13.0 89.9 -13.0 89.9
1997-02-13 00:00:00 -12.9 89.6 -12.9 89.6
1997-02-13 06:00:00 -12.9 89.3 -12.9 89.3
1997-02-13 12:00:00 -12.9 88.9 -12.9 88.9
1997-02-13 18:00:00 -13.0 88.4 -13.0 88.4
1997-02-14 00:00:00 -13.1 87.8 -13.1 87.8
1997-02-14 06:00:00 -13.3 87.2 -13.4 86.5 -13.3 87.2
1997-02-14 12:00:00 -13.5 86.6 -13.9 85.8 -13.5 86.6
1997-02-14 18:00:00 -13.7 86.0 -14.1 85.2 -13.7 86.0
1997-02-15 00:00:00 -14.1 85.4 -14.3 84.4 -14.1 85.4
1997-02-15 06:00:00 -14.6 84.5 -14.6 83.6 -14.6 84.5
1997-02-15 12:00:00 -15.1 83.7 -14.9 83.0 -15.1 83.7
1997-02-15 18:00:00 -15.4 83.0 -15.0 82.7 -15.4 83.0
1997-02-16 00:00:00 -15.4 82.3 -15.0 82.3 -15.4 82.3
1997-02-16 06:00:00 -15.4 81.6 -14.7 81.8 -15.4 81.6
1997-02-16 12:00:00 -15.4 80.8 -14.6 81.2 -15.4 80.8
1997-02-16 18:00:00 -15.1 79.9 -14.8 80.5 -15.1 79.9
1997-02-17 00:00:00 -15.0 79.1 -15.0 79.7 -15.0 79.1
jtwc_sh reunion neumann
1997-02-17 06:00:00 -15.1 78.4 -15.3 78.5 -15.1 78.4
1997-02-17 12:00:00 -15.2 77.9 -15.5 77.5 -15.2 77.9
1997-02-17 18:00:00 -15.5 77.2 -15.6 76.7 -15.5 77.2
1997-02-18 00:00:00 -15.8 76.4 -15.7 75.9 -15.8 76.4
1997-02-18 06:00:00 -16.2 75.4 -15.8 74.9 -16.2 75.4
1997-02-18 12:00:00 -16.4 74.2 -15.8 73.9 -16.4 74.2
1997-02-18 18:00:00 -16.6 73.1 -16.3 72.9 -16.6 73.1
1997-02-19 00:00:00 -16.9 72.4 -16.8 72.2 -16.9 72.4
1997-02-19 06:00:00 -17.2 71.8 -17.4 71.8 -17.2 71.8
1997-02-19 12:00:00 -17.5 71.3 -18.0 71.7 -17.5 71.3
1997-02-19 18:00:00 -17.8 70.7 -18.0 71.1 -17.8 70.7
1997-02-20 00:00:00 -18.0 70.0 -17.9 70.5 -18.0 70.0
1997-02-20 06:00:00 -18.0 69.3 -17.9 69.7 -18.0 69.3
1997-02-20 12:00:00 -18.0 68.7 -17.9 68.8 -18.0 68.7
1997-02-20 18:00:00 -18.2 68.0 -18.4 67.7 -18.2 68.0
1997-02-21 00:00:00 -18.6 67.3 -19.2 66.8 -18.6 67.3
1997-02-21 06:00:00 -19.2 66.3 -19.5 65.6 -19.2 66.3
1997-02-21 12:00:00 -19.8 64.9 -20.0 64.5 -19.8 64.9
1997-02-21 18:00:00 -20.2 63.5 -20.4 63.6 -20.2 63.5
1997-02-22 00:00:00 -20.8 62.4 -20.9 62.5 -20.8 62.4
1997-02-22 06:00:00 -21.4 61.3 -21.6 61.2 -21.4 61.3
1997-02-22 12:00:00 -21.9 60.2 -22.1 60.1 -21.9 60.2
1997-02-22 18:00:00 -22.5 59.2 -22.5 59.3 -22.5 59.2
1997-02-23 00:00:00 -23.2 58.4 -23.2 58.4 -23.2 58.4
jtwc_sh reunion neumann
1997-02-23 06:00:00 -24.2 57.8 -24.2 57.5 -24.2 57.8
1997-02-23 12:00:00 -25.3 57.3 -24.9 56.9 -25.3 57.3
1997-02-23 18:00:00 -26.5 57.0 -25.8 56.5 -26.5 57.0
1997-02-24 00:00:00 -27.6 56.7 -26.7 56.2 -27.6 56.7
1997-02-24 06:00:00 -28.8 56.5 -27.9 56.3 -28.8 56.5
1997-02-24 12:00:00 -30.5 56.3 -29.5 56.7 -30.5 56.3
1997-02-24 18:00:00 -32.4 56.8 -31.5 57.5 -32.4 56.8
1997-02-25 00:00:00 -34.3 57.4 -34.0 58.6 -34.3 57.4
1997-02-25 06:00:00 -35.8 57.7 -35.9 58.4 -35.8 57.7
1997-02-25 12:00:00 -37.1 57.7 -37.1 57.7
1997-02-25 18:00:00 -38.3 56.9 -38.3 56.9
1997-02-26 00:00:00 -39.2 56.4 -39.2 56.4
1997-02-26 06:00:00 -39.9 55.6 -39.9 55.6

top of pageTrack Data:Intensity

jtwc_sh reunion neumann
Date Wind Pres Wind Pres Wind Pres
1997-02-11 00:00:00 15. 15.
1997-02-11 06:00:00 15. 15.
1997-02-11 12:00:00 15. 15.
1997-02-11 18:00:00 15. 15.
1997-02-12 00:00:00 15. 15.
1997-02-12 06:00:00 15. 15.
1997-02-12 12:00:00 15. 15.
1997-02-12 18:00:00 15. 15.
1997-02-13 00:00:00 15. 15.
1997-02-13 06:00:00 15. 15.
1997-02-13 12:00:00 15. 15.
1997-02-13 18:00:00 15. 15.
1997-02-14 00:00:00 15. 15.
1997-02-14 06:00:00 20. 25. 1004. 20.
1997-02-14 12:00:00 25. 25. 1002. 25.
1997-02-14 18:00:00 25. 25. 1002. 25.
1997-02-15 00:00:00 25. 25. 1002. 25.
1997-02-15 06:00:00 25. 25. 1002. 25.
1997-02-15 12:00:00 25. 25. 1000. 25.
1997-02-15 18:00:00 25. 30. 995. 25.
1997-02-16 00:00:00 25. 35. 992. 25.
1997-02-16 06:00:00 30. 35. 992. 30.
1997-02-16 12:00:00 35. 35. 992. 35.
1997-02-16 18:00:00 40. 35. 992. 40.
1997-02-17 00:00:00 45. 30. 995. 45.
jtwc_sh reunion neumann
1997-02-17 06:00:00 45. 28. 997. 45.
1997-02-17 12:00:00 45. 28. 997. 45.
1997-02-17 18:00:00 45. 35. 992. 45.
1997-02-18 00:00:00 45. 40. 988. 45.
1997-02-18 06:00:00 45. 45. 984. 45.
1997-02-18 12:00:00 45. 45. 984. 45.
1997-02-18 18:00:00 45. 45. 984. 45.
1997-02-19 00:00:00 45. 45. 984. 45.
1997-02-19 06:00:00 45. 40. 988. 45.
1997-02-19 12:00:00 45. 35. 992. 45.
1997-02-19 18:00:00 45. 35. 992. 45.
1997-02-20 00:00:00 45. 30. 995. 45.
1997-02-20 06:00:00 45. 35. 992. 45.
1997-02-20 12:00:00 50. 40. 988. 50.
1997-02-20 18:00:00 55. 40. 988. 55.
1997-02-21 00:00:00 55. 40. 988. 55.
1997-02-21 06:00:00 55. 45. 984. 55.
1997-02-21 12:00:00 60. 50. 980. 60.
1997-02-21 18:00:00 65. 55. 975. 65.
1997-02-22 00:00:00 65. 60. 970. 65.
1997-02-22 06:00:00 65. 60. 970. 65.
1997-02-22 12:00:00 65. 60. 970. 65.
1997-02-22 18:00:00 65. 60. 970. 65.
1997-02-23 00:00:00 60. 60. 970. 60.
jtwc_sh reunion neumann
1997-02-23 06:00:00 55. 60. 970. 55.
1997-02-23 12:00:00 55. 55. 975. 55.
1997-02-23 18:00:00 50. 50. 980. 50.
1997-02-24 00:00:00 50. 45. 985. 50.
1997-02-24 06:00:00 45. 45. 985. 45.
1997-02-24 12:00:00 45. 45. 985. 45.
1997-02-24 18:00:00 45. 40. 990. 45.
1997-02-25 00:00:00 40. 40.
1997-02-25 06:00:00 40. 40.
1997-02-25 12:00:00 40. 40.
1997-02-25 18:00:00 35. 35.
1997-02-26 00:00:00 30. 30.
1997-02-26 06:00:00 30. 30.

top of page Links to source data

Source Source file Format
jtwc_sh bsh251997.txt ATCF
reunion WMO-Best-Tracks.txt:Line=17998:karlette WMO (old format)
neumann tracks.sh:Storm=1089:KARLETTE:BSH251997:JTWC HURDAT